createdAt,value
2022-10-29T00:01:15.749Z,100.00
2022-10-29T00:04:00.542Z,100.00
2022-10-29T00:06:45.424Z,100.00
2022-10-29T00:09:30.365Z,100.00
2022-10-29T00:12:15.303Z,100.00
2022-10-29T00:15:00.372Z,100.00
2022-10-29T00:17:45.452Z,100.00
2022-10-29T00:20:30.395Z,100.00
2022-10-29T00:23:15.320Z,100.00
2022-10-29T00:26:01.803Z,100.00
2022-10-29T00:28:47.919Z,100.00
2022-10-29T00:31:33.125Z,100.00
2022-10-29T00:34:18.062Z,100.00
2022-10-29T00:37:06.408Z,100.00
2022-10-29T00:39:51.641Z,100.00
2022-10-29T00:42:36.589Z,100.00
2022-10-29T00:45:21.713Z,100.00
2022-10-29T00:48:07.131Z,100.00
2022-10-29T00:50:53.995Z,100.00
2022-10-29T00:53:44.325Z,100.00
2022-10-29T00:56:33.964Z,100.00
2022-10-29T00:59:18.940Z,100.00
2022-10-29T01:02:04.276Z,100.00
2022-10-29T01:04:51.855Z,100.00
2022-10-29T01:07:37.411Z,100.00
2022-10-29T01:10:37.613Z,100.00
2022-10-29T01:13:42.715Z,100.00
2022-10-29T01:16:43.125Z,100.00
2022-10-29T01:19:34.134Z,100.00
2022-10-29T01:22:37.640Z,100.00
2022-10-29T01:25:32.150Z,100.00
2022-10-29T01:28:35.307Z,100.00
2022-10-29T01:31:40.133Z,100.00
2022-10-29T01:34:31.662Z,100.00
2022-10-29T01:37:31.748Z,100.00
2022-10-29T01:40:34.816Z,100.00
2022-10-29T01:43:57.134Z,100.00
2022-10-29T01:46:54.206Z,100.00
2022-10-29T01:49:42.447Z,100.00
2022-10-29T01:52:32.331Z,100.00
2022-10-29T01:55:23.276Z,100.00
2022-10-29T01:58:10.145Z,100.00
2022-10-29T02:01:01.381Z,100.00
2022-10-29T02:04:04.351Z,100.00
2022-10-29T02:07:15.200Z,100.00
2022-10-29T02:10:26.502Z,100.00
2022-10-29T02:13:17.068Z,100.00
2022-10-29T02:16:06.738Z,100.00
2022-10-29T02:18:53.088Z,100.00
2022-10-29T02:21:40.367Z,100.00
2022-10-29T02:24:33.785Z,100.00
2022-10-29T02:27:18.863Z,100.00
2022-10-29T02:30:05.009Z,100.00
2022-10-29T02:32:50.243Z,100.00
2022-10-29T02:35:35.362Z,100.00
2022-10-29T02:38:20.358Z,100.00
2022-10-29T02:41:05.711Z,100.00
2022-10-29T02:43:50.696Z,100.00
2022-10-29T02:46:39.451Z,100.00
2022-10-29T02:49:24.438Z,100.00
2022-10-29T02:52:09.793Z,100.00
2022-10-29T02:54:54.842Z,100.00
2022-10-29T02:57:39.778Z,100.00
2022-10-29T03:00:24.905Z,100.00
2022-10-29T03:03:09.742Z,100.00
2022-10-29T03:05:54.691Z,100.00
2022-10-29T03:08:39.986Z,100.00
2022-10-29T03:11:25.150Z,100.00
2022-10-29T03:14:10.354Z,100.00
2022-10-29T03:16:55.445Z,100.00
2022-10-29T03:19:40.429Z,100.00
2022-10-29T03:22:25.292Z,100.00
2022-10-29T03:25:10.660Z,100.00
2022-10-29T03:27:56.108Z,100.00
2022-10-29T03:30:41.780Z,100.00
2022-10-29T03:33:26.845Z,100.00
2022-10-29T03:36:12.166Z,100.00
2022-10-29T03:38:57.320Z,100.00
2022-10-29T03:41:42.185Z,100.00
2022-10-29T03:44:27.148Z,100.00
2022-10-29T03:47:12.144Z,100.00
2022-10-29T03:49:57.045Z,100.00
2022-10-29T03:52:42.055Z,100.00
2022-10-29T03:55:29.114Z,100.00
2022-10-29T03:58:14.344Z,100.00
2022-10-29T04:01:08.285Z,100.00
2022-10-29T04:03:53.566Z,100.00
2022-10-29T04:06:38.585Z,100.00
2022-10-29T04:09:23.622Z,100.00
2022-10-29T04:12:09.095Z,100.00
2022-10-29T04:14:54.016Z,100.00
2022-10-29T04:17:38.948Z,100.00
2022-10-29T04:20:43.386Z,100.00
2022-10-29T04:29:39.612Z,100.00
2022-10-29T04:32:24.567Z,100.00
2022-10-29T04:35:09.474Z,100.00
2022-10-29T04:37:55.465Z,100.00
2022-10-29T04:40:40.274Z,100.00
2022-10-29T04:43:25.806Z,100.00
2022-10-29T04:46:11.307Z,100.00
2022-10-29T04:48:56.236Z,100.00
2022-10-29T04:51:41.795Z,100.00
2022-10-29T04:54:26.963Z,100.00
2022-10-29T04:57:11.782Z,100.00
2022-10-29T04:59:56.772Z,100.00
2022-10-29T05:02:41.809Z,100.00
2022-10-29T05:05:26.936Z,100.00
2022-10-29T05:08:12.308Z,100.00
2022-10-29T05:10:57.411Z,100.00
2022-10-29T05:13:43.527Z,100.00
2022-10-29T05:16:28.563Z,100.00
2022-10-29T05:19:13.529Z,100.00
2022-10-29T05:21:58.344Z,100.00
2022-10-29T05:24:43.614Z,100.00
2022-10-29T05:27:28.622Z,100.00
2022-10-29T05:30:13.767Z,100.00
2022-10-29T05:32:59.196Z,100.00
2022-10-29T05:35:44.814Z,100.00
2022-10-29T05:38:29.651Z,100.00
2022-10-29T05:41:14.590Z,100.00
2022-10-29T05:43:59.678Z,100.00
2022-10-29T05:46:48.009Z,100.00
2022-10-29T05:49:33.127Z,100.00
2022-10-29T05:52:18.195Z,100.00
2022-10-29T05:55:03.907Z,100.00
2022-10-29T05:57:49.413Z,100.00
2022-10-29T06:00:37.579Z,100.00
2022-10-29T06:03:23.310Z,100.00
2022-10-29T06:06:08.446Z,100.00
2022-10-29T06:08:53.701Z,100.00
2022-10-29T06:11:38.521Z,100.00
2022-10-29T06:14:23.778Z,100.00
2022-10-29T06:17:08.695Z,100.00
2022-10-29T06:19:53.860Z,100.00
2022-10-29T06:22:39.372Z,100.00
2022-10-29T06:25:25.521Z,100.00
2022-10-29T06:28:15.012Z,100.00
2022-10-29T06:31:00.308Z,100.00
2022-10-29T06:33:45.475Z,100.00
2022-10-29T06:36:30.368Z,100.00
2022-10-29T06:39:15.160Z,100.00
2022-10-29T06:42:00.481Z,100.00
2022-10-29T06:44:45.269Z,100.00
2022-10-29T06:47:30.271Z,100.00
2022-10-29T06:50:15.399Z,100.00
2022-10-29T06:53:03.039Z,100.00
2022-10-29T06:55:48.152Z,100.00
2022-10-29T06:58:33.341Z,100.00
2022-10-29T07:01:18.401Z,100.00
2022-10-29T07:04:03.362Z,100.00
2022-10-29T07:06:48.295Z,100.00
2022-10-29T07:09:33.353Z,100.00
2022-10-29T07:12:18.353Z,100.00
2022-10-29T07:15:03.557Z,100.00
2022-10-29T07:17:59.219Z,100.00
2022-10-29T07:20:45.472Z,100.00
2022-10-29T07:26:15.728Z,100.00
2022-10-29T07:29:00.829Z,100.00
2022-10-29T07:31:46.069Z,100.00
2022-10-29T07:34:30.974Z,100.00
2022-10-29T07:37:15.940Z,100.00
2022-10-29T07:40:01.095Z,100.00
2022-10-29T07:42:46.162Z,100.00
2022-10-29T07:45:31.903Z,100.00
2022-10-29T07:48:18.324Z,100.00
2022-10-29T07:51:03.269Z,100.00
2022-10-29T07:53:48.445Z,100.00
2022-10-29T07:56:33.679Z,100.00
2022-10-29T07:59:19.448Z,100.00
2022-10-29T08:02:04.672Z,100.00
2022-10-29T08:04:49.807Z,100.00
2022-10-29T08:07:34.633Z,100.00
2022-10-29T08:10:20.125Z,100.00
2022-10-29T08:13:06.441Z,100.00
2022-10-29T08:15:51.763Z,100.00
2022-10-29T08:18:37.085Z,100.00
2022-10-29T08:21:22.563Z,100.00
2022-10-29T08:24:07.968Z,100.00
2022-10-29T08:26:53.303Z,100.00
2022-10-29T08:29:38.356Z,100.00
2022-10-29T08:32:23.464Z,100.00
2022-10-29T08:35:08.796Z,100.00
2022-10-29T08:37:54.106Z,100.00
2022-10-29T08:40:46.689Z,100.00
2022-10-29T08:43:34.780Z,100.00
2022-10-29T08:46:48.894Z,100.00
2022-10-29T08:49:44.804Z,100.00
2022-10-29T08:52:36.942Z,100.00
2022-10-29T08:55:37.118Z,100.00
2022-10-29T08:58:33.521Z,100.00
2022-10-29T09:01:21.809Z,100.00
2022-10-29T09:04:23.563Z,100.00
2022-10-29T09:07:14.952Z,100.00
2022-10-29T09:10:22.824Z,100.00
2022-10-29T09:13:38.313Z,100.00
2022-10-29T09:16:43.126Z,100.00
2022-10-29T09:19:37.242Z,100.00
2022-10-29T09:22:25.261Z,100.00
2022-10-29T09:25:29.761Z,100.00
2022-10-29T09:28:26.898Z,100.00
2022-10-29T09:31:30.109Z,100.00
2022-10-29T09:34:34.233Z,100.00
2022-10-29T09:37:35.706Z,100.00
2022-10-29T09:40:32.159Z,100.00
2022-10-29T09:43:39.290Z,100.00
2022-10-29T09:46:39.457Z,100.00
2022-10-29T09:49:43.222Z,100.00
2022-10-29T09:52:32.269Z,100.00
2022-10-29T09:55:23.410Z,100.00
2022-10-29T09:58:20.108Z,100.00
2022-10-29T10:01:05.471Z,100.00
2022-10-29T10:03:59.298Z,100.00
2022-10-29T10:07:05.302Z,100.00
2022-10-29T10:09:59.746Z,100.00
2022-10-29T10:12:47.838Z,100.00
2022-10-29T10:15:33.045Z,100.00
2022-10-29T10:18:23.936Z,100.00
2022-10-29T10:21:35.320Z,100.00
2022-10-29T10:24:35.633Z,100.00
2022-10-29T10:27:29.220Z,100.00
2022-10-29T10:30:17.851Z,100.00
2022-10-29T10:36:13.639Z,100.00
2022-10-29T10:39:00.351Z,100.00
2022-10-29T10:41:45.806Z,100.00
2022-10-29T10:44:31.411Z,100.00
2022-10-29T10:47:19.050Z,100.00
2022-10-29T10:50:18.548Z,100.00
2022-10-29T10:53:17.509Z,100.00
2022-10-29T10:56:03.015Z,100.00
2022-10-29T10:59:06.643Z,100.00
2022-10-29T11:01:53.234Z,100.00
2022-10-29T11:04:41.225Z,100.00
2022-10-29T11:07:34.071Z,100.00
2022-10-29T11:10:24.835Z,100.00
2022-10-29T11:13:20.666Z,100.00
2022-10-29T11:16:24.811Z,100.00
2022-10-29T11:19:16.763Z,100.00
2022-10-29T11:22:06.609Z,100.00
2022-10-29T11:24:58.809Z,100.00
2022-10-29T11:28:03.395Z,100.00
2022-10-29T11:31:13.285Z,100.00
2022-10-29T11:34:24.877Z,100.00
2022-10-29T11:37:21.531Z,100.00
2022-10-29T11:40:14.793Z,100.00
2022-10-29T11:43:07.079Z,100.00
2022-10-29T11:46:17.797Z,98.50
2022-10-29T11:49:48.142Z,97.13
2022-10-29T11:52:42.309Z,97.43
2022-10-29T11:56:00.820Z,96.91
2022-10-29T11:58:51.634Z,96.43
2022-10-29T12:01:57.861Z,94.57
2022-10-29T12:04:53.923Z,94.23
2022-10-29T12:07:47.886Z,93.21
2022-10-29T12:10:51.202Z,93.11
2022-10-29T12:13:45.059Z,91.96
2022-10-29T12:16:51.361Z,90.59
2022-10-29T12:19:57.995Z,90.50
2022-10-29T12:23:04.950Z,90.08
2022-10-29T12:25:54.002Z,87.84
2022-10-29T12:29:03.068Z,87.15
2022-10-29T12:31:56.269Z,87.02
2022-10-29T12:34:52.589Z,86.08
2022-10-29T12:37:43.303Z,85.63
2022-10-29T12:40:35.126Z,85.17
2022-10-29T12:43:28.317Z,84.96
2022-10-29T12:46:25.765Z,84.85
2022-10-29T12:49:40.169Z,85.04
2022-10-29T12:52:55.983Z,85.14
2022-10-29T12:55:44.362Z,84.81
2022-10-29T12:58:48.776Z,84.82
2022-10-29T13:04:38.965Z,83.12
2022-10-29T13:07:24.502Z,82.91
2022-10-29T13:10:29.629Z,82.26
2022-10-29T13:13:15.035Z,82.92
2022-10-29T13:16:03.627Z,83.05
2022-10-29T13:19:06.062Z,82.94
2022-10-29T13:21:54.634Z,83.36
2022-10-29T13:24:39.965Z,83.29
2022-10-29T13:27:27.713Z,83.78
2022-10-29T13:30:15.769Z,83.19
2022-10-29T13:33:01.153Z,83.60
2022-10-29T13:35:53.497Z,83.52
2022-10-29T13:39:04.504Z,83.34
2022-10-29T13:41:54.199Z,82.66
2022-10-29T13:44:39.199Z,82.23
2022-10-29T13:47:25.697Z,82.36
2022-10-29T13:50:14.817Z,83.45
2022-10-29T13:53:03.222Z,83.88
2022-10-29T13:55:50.413Z,84.19
2022-10-29T13:58:37.195Z,85.35
2022-10-29T14:01:24.592Z,85.59
2022-10-29T14:04:33.011Z,85.80
2022-10-29T14:07:26.308Z,85.68
2022-10-29T14:10:23.433Z,85.92
2022-10-29T14:13:46.485Z,86.01
2022-10-29T14:16:32.959Z,85.12
2022-10-29T14:19:21.547Z,84.17
2022-10-29T14:22:35.578Z,84.02
2022-10-29T14:25:34.059Z,83.51
2022-10-29T14:28:31.555Z,84.11
2022-10-29T14:31:24.953Z,84.26
2022-10-29T14:34:25.092Z,84.96
2022-10-29T14:37:41.390Z,85.46
2022-10-29T14:40:26.417Z,85.82
2022-10-29T14:43:30.311Z,86.46
2022-10-29T14:46:30.571Z,86.88
2022-10-29T14:49:23.216Z,87.41
2022-10-29T14:52:26.497Z,87.37
2022-10-29T14:55:19.808Z,87.35
2022-10-29T14:58:19.518Z,88.63
2022-10-29T15:01:09.859Z,89.33
2022-10-29T15:04:02.001Z,89.95
2022-10-29T15:06:46.988Z,90.20
2022-10-29T15:09:32.131Z,90.54
2022-10-29T15:12:20.686Z,90.63
2022-10-29T15:15:30.049Z,90.63
2022-10-29T15:18:21.777Z,90.67
2022-10-29T15:21:07.081Z,90.58
2022-10-29T15:23:58.661Z,90.41
2022-10-29T15:26:47.907Z,90.47
2022-10-29T15:29:43.105Z,91.24
2022-10-29T15:32:31.529Z,90.96
2022-10-29T15:35:21.536Z,90.98
2022-10-29T15:38:38.123Z,91.28
2022-10-29T15:41:36.213Z,91.17
2022-10-29T15:44:31.316Z,93.35
2022-10-29T15:47:26.333Z,94.95
2022-10-29T15:50:14.045Z,96.05
2022-10-29T15:53:05.577Z,97.30
2022-10-29T15:55:52.808Z,97.51
2022-10-29T15:58:37.816Z,96.50
2022-10-29T16:01:23.167Z,96.21
2022-10-29T16:04:09.444Z,97.63
2022-10-29T16:06:55.118Z,98.87
2022-10-29T16:09:46.808Z,100.00
2022-10-29T16:12:32.235Z,100.00
2022-10-29T16:15:19.542Z,100.00
2022-10-29T16:18:04.584Z,100.00
2022-10-29T16:20:52.112Z,100.00
2022-10-29T16:23:38.378Z,100.00
2022-10-29T16:26:25.117Z,100.00
2022-10-29T16:29:10.408Z,100.00
2022-10-29T16:31:55.648Z,100.00
2022-10-29T16:34:40.939Z,100.00
2022-10-29T16:37:26.021Z,100.00
2022-10-29T16:40:12.304Z,100.00
2022-10-29T16:42:57.943Z,100.00
2022-10-29T16:45:43.481Z,100.00
2022-10-29T16:48:28.656Z,100.00
2022-10-29T16:51:13.851Z,100.00
2022-10-29T16:53:58.999Z,100.00
2022-10-29T16:56:44.003Z,100.00
2022-10-29T16:59:28.845Z,100.00
2022-10-29T17:02:13.722Z,100.00
2022-10-29T17:04:59.239Z,100.00
2022-10-29T17:07:44.147Z,100.00
2022-10-29T17:10:31.166Z,100.00
2022-10-29T17:13:16.260Z,100.00
2022-10-29T17:16:05.173Z,100.00
2022-10-29T17:18:51.902Z,100.00
2022-10-29T17:21:36.776Z,100.00
2022-10-29T17:24:21.889Z,100.00
2022-10-29T17:27:06.688Z,100.00
2022-10-29T17:29:51.877Z,100.00
2022-10-29T17:32:36.977Z,100.00
2022-10-29T17:35:22.223Z,100.00
2022-10-29T17:38:06.991Z,100.00
2022-10-29T17:40:51.954Z,100.00
2022-10-29T17:43:37.223Z,100.00
2022-10-29T17:46:22.318Z,100.00
2022-10-29T17:49:07.653Z,100.00
2022-10-29T17:51:53.074Z,100.00
2022-10-29T17:54:38.461Z,100.00
2022-10-29T17:57:23.671Z,100.00
2022-10-29T18:00:09.532Z,100.00
2022-10-29T18:02:54.804Z,100.00
2022-10-29T18:05:40.251Z,100.00
2022-10-29T18:08:25.494Z,100.00
2022-10-29T18:11:14.380Z,100.00
2022-10-29T18:13:59.591Z,100.00
2022-10-29T18:16:45.729Z,100.00
2022-10-29T18:19:30.524Z,100.00
2022-10-29T18:22:15.640Z,100.00
2022-10-29T18:25:01.037Z,100.00
2022-10-29T18:27:46.261Z,100.00
2022-10-29T18:30:31.183Z,100.00
2022-10-29T18:33:16.060Z,100.00
2022-10-29T18:36:01.014Z,100.00
2022-10-29T18:38:54.175Z,100.00
2022-10-29T18:41:40.426Z,100.00
2022-10-29T18:44:26.899Z,100.00
2022-10-29T18:47:11.991Z,100.00
2022-10-29T18:49:56.844Z,100.00
2022-10-29T18:52:41.715Z,100.00
2022-10-29T18:55:26.633Z,100.00
2022-10-29T18:58:11.773Z,100.00
2022-10-29T19:01:13.403Z,100.00
2022-10-29T19:04:00.665Z,100.00
2022-10-29T19:06:46.045Z,100.00
2022-10-29T19:09:31.159Z,100.00
2022-10-29T19:12:16.110Z,100.00
2022-10-29T19:15:01.077Z,100.00
2022-10-29T19:17:45.937Z,100.00
2022-10-29T19:20:34.112Z,100.00
2022-10-29T19:23:19.144Z,100.00
2022-10-29T19:26:12.980Z,100.00
2022-10-29T19:29:03.370Z,100.00
2022-10-29T19:31:48.737Z,100.00
2022-10-29T19:34:34.091Z,100.00
2022-10-29T19:37:19.079Z,100.00
2022-10-29T19:40:04.468Z,100.00
2022-10-29T19:42:49.361Z,100.00
2022-10-29T19:45:34.314Z,100.00
2022-10-29T19:48:19.487Z,100.00
2022-10-29T19:51:05.561Z,100.00
2022-10-29T19:53:51.626Z,100.00
2022-10-29T19:56:36.769Z,100.00
2022-10-29T19:59:24.432Z,100.00
2022-10-29T20:02:10.956Z,100.00
2022-10-29T20:04:56.181Z,100.00
2022-10-29T20:07:41.213Z,100.00
2022-10-29T20:10:26.051Z,100.00
2022-10-29T20:13:10.973Z,100.00
2022-10-29T20:15:56.528Z,100.00
2022-10-29T20:18:41.307Z,100.00
2022-10-29T20:21:26.511Z,100.00
2022-10-29T20:24:11.679Z,100.00
2022-10-29T20:26:56.693Z,100.00
2022-10-29T20:29:41.516Z,100.00
2022-10-29T20:32:26.712Z,100.00
2022-10-29T20:35:11.921Z,100.00
2022-10-29T20:37:57.190Z,100.00
2022-10-29T20:40:42.999Z,100.00
2022-10-29T20:43:28.470Z,100.00
2022-10-29T20:46:13.312Z,100.00
2022-10-29T20:48:58.186Z,100.00
2022-10-29T20:51:43.395Z,100.00
2022-10-29T20:54:29.021Z,100.00
2022-10-29T20:57:14.161Z,100.00
2022-10-29T20:59:59.521Z,100.00
2022-10-29T21:02:44.725Z,100.00
2022-10-29T21:05:29.695Z,100.00
2022-10-29T21:08:14.644Z,100.00
2022-10-29T21:11:06.305Z,100.00
2022-10-29T21:13:51.475Z,100.00
2022-10-29T21:16:36.683Z,100.00
2022-10-29T21:19:22.778Z,100.00
2022-10-29T21:22:08.161Z,100.00
2022-10-29T21:24:53.327Z,100.00
2022-10-29T21:27:38.175Z,100.00
2022-10-29T21:30:23.203Z,100.00
2022-10-29T21:33:09.915Z,100.00
2022-10-29T21:35:56.703Z,100.00
2022-10-29T21:38:41.767Z,100.00
2022-10-29T21:41:26.844Z,100.00
2022-10-29T21:44:11.981Z,100.00
2022-10-29T21:46:57.147Z,100.00
2022-10-29T21:49:42.061Z,100.00
2022-10-29T21:52:26.942Z,100.00
2022-10-29T21:55:12.290Z,100.00
2022-10-29T21:57:57.862Z,100.00
2022-10-29T22:00:43.413Z,100.00
2022-10-29T22:03:31.558Z,100.00
2022-10-29T22:06:21.938Z,100.00
2022-10-29T22:09:07.276Z,100.00
2022-10-29T22:11:52.346Z,100.00
2022-10-29T22:14:37.203Z,100.00
2022-10-29T22:17:22.136Z,100.00
2022-10-29T22:20:07.247Z,100.00
2022-10-29T22:22:52.108Z,100.00
2022-10-29T22:25:37.277Z,100.00
2022-10-29T22:28:22.389Z,100.00
2022-10-29T22:31:07.614Z,100.00
2022-10-29T22:33:52.788Z,100.00
2022-10-29T22:36:38.197Z,100.00
2022-10-29T22:39:25.327Z,100.00
2022-10-29T22:42:10.860Z,100.00
2022-10-29T22:44:55.911Z,100.00
2022-10-29T22:47:40.807Z,100.00
2022-10-29T22:50:25.786Z,100.00
2022-10-29T22:53:10.731Z,100.00
2022-10-29T22:55:56.183Z,100.00
2022-10-29T22:58:42.508Z,100.00
2022-10-29T23:01:36.258Z,100.00
2022-10-29T23:04:24.000Z,100.00
2022-10-29T23:07:09.256Z,100.00
2022-10-29T23:09:54.854Z,100.00
2022-10-29T23:12:40.112Z,100.00
2022-10-29T23:15:25.207Z,100.00
2022-10-29T23:18:10.124Z,100.00
2022-10-29T23:21:02.450Z,100.00
2022-10-29T23:23:51.467Z,100.00
2022-10-29T23:26:37.176Z,100.00
2022-10-29T23:29:22.433Z,100.00
2022-10-29T23:32:07.315Z,100.00
2022-10-29T23:34:52.224Z,100.00
2022-10-29T23:37:37.028Z,100.00
2022-10-29T23:40:22.142Z,100.00
2022-10-29T23:43:07.234Z,100.00
2022-10-29T23:45:52.334Z,100.00
2022-10-29T23:48:37.538Z,100.00
2022-10-29T23:51:22.763Z,100.00
2022-10-29T23:54:07.826Z,100.00
2022-10-29T23:56:52.921Z,100.00
2022-10-29T23:59:37.876Z,100.00
